ENNM/OSY METAR and TAF weather

Enter ICAO airport designator
Station Type Date Time Source
ENNM METAR 2020/08/15 09:20 UTC NOAA

ENNM 150920Z 21007KT 170V250 9999 -SHRA FEW015 BKN020 16/13 Q1013


Station Type Date Time Source
ENNM Decoded METAR 2020/08/15 09:20 UTC NOAA

Namsos Lufthavn, Norway (ENNM) 64-28N 011-35E 2M
Aug 15, 2020 - 05:20 AM EDT / 2020.08.15 0920 UTC
Wind: from the SSW (210 degrees) at 8 MPH (7 KT) (direction variable):0
Visibility: greater than 7 mile(s):0
Sky conditions: mostly cloudy
Weather: light rain showers
Temperature: 60 F (16 C)
Dew Point: 55 F (13 C)
Relative Humidity: 82%
Pressure (altimeter): 29.91 in. Hg (1013 hPa)
ob: ENNM 150920Z 21007KT 170V250 9999 -SHRA FEW015 BKN020 16/13 Q1013
cycle: 9

Station Type Date Time Source
ENNM TAF UTC NOAA

Error!

Example: see airport list